Mobile Regional Airport
KMOB : now visible

Airfield :











YOU CAN JOIN US ON...

 
LOGIN :

Register | Disclaimer

   EN    FR    IT 

 









Legend :    VFR   Marginal VFR   IFR   Intensive IFR   Very Intensive IFR
Visi :
Ceiling :
>= 8 km
>= 3000ft
5 to 8 km
1000 to 3000 ft
1500m to 5 km
500 to 1000 ft
800 to 1500m
200 to 500 ft
< 800m
< 200 ft
Symbols :   Thunderstorms  Fog  Heavy snow  Heavy precipitations  Wind > 20 kt






- Airport Elevation : 219 ft
- IATA code : MOB


KMOB - Mobile Regional

CURRENT METAR :
  • 241728Z 15013G25KT 3SM TSRA BKN019CB BKN050 BKN150 26/21 A3000 RMK AO2 LTG DSNT NW-E RAB23 TSB19 FRQ LTGICCG NW-NE TS NW-NE MOV NE CB DSNT ALQDS P0001 T02560206 $

EXPIRED METARs :
  • 241656Z 14014KT 7SM BKN021 BKN038 BKN150 28/23 A3000 RMK AO2 LTG DSNT NW-NE TSB22E44 SLP154 CB DSNT NW-NE T02780233
  • 241646Z 13013KT 7SM BKN021 BKN038 BKN150 28/23 A2999 RMK AO2 LTG DSNT NW-NE TSB22E44 CB DSNT NW-NE T02830233
  • 241624Z 15013KT 7SM TS BKN021CB BKN038 BKN150 28/23 A2999 RMK AO2 LTG DSNT NW-NE TSB22 FRQ LTGICCG ALQDS TS ALQDS MOV NE CB DSNT ALQDS T02780228
  • 241556Z 14013KT 7SM BKN019 BKN043 BKN100 29/23 A2999 RMK AO2 LTG DSNT W AND NW RAB1457E08 SLP153 CB DSNT ALQDS P0001 T02890228
  • 241546Z 15012KT 7SM BKN019 BKN043 BKN100 29/23 A2999 RMK AO2 LTG DSNT NW RAB1457E08 CB DSNT ALQDS P0001 T02890233
  • 241506Z 14010KT 9SM -RA SCT013 BKN031 OVC090 27/24 A3000 RMK AO2 RAB1457 P0001 T02720239
  • 241456Z 15011G18KT 7SM SCT008 BKN025 OVC100 28/24 A2999 RMK AO2 RAB39E51 SLP152 P0000 60000 T02780239 51003

TAF KMOB
Valid from the 24 at 18:00 until the 25 at 18:00 UTC


241720Z 2418/2518 15012G20KT 6SM BR VCTS BKN020CB BKN040 BKN150
TEMPO 2419/2421 4SM TSRA OVC025CB
FM250400 14007KT P6SM BKN025
FM250900 15008KT 6SM BR VCTS BKN015CB
KZHU FIR / North America



MET'MAP, your aeronautical weather chart ! - Copyright ORBIFLY December 2007 - Disclaimer

ORBIFLY MET'MAP TEAM :

Programming & Development : Alexandra Zaïnal
Original concept : Baudouin d'Aumeries
Technical & hardware support : Manuel Goepfert
Assistance : Marc-Olivier Méhu

Contact : metmap@orbifly.com




SOURCES & CREDITS :

   NOAA       Earth
Advisory